Flight Track Log - Related Links

Times and Time Zones

All times are in EDT time to prevent confusion due to time zone crossing. See the DAL2033 flight status page for this flight to view local times or setup timezone preferences in your user account.

Time Position Orientation Groundspeed Altitude Reporting Facility
EDT Latitude Longitude Course Direction KTS MPH feet Rate Location/Type
Sun 03:30:34 PM 33.6556 -84.4906 North 441 507 3,000  Level Atlanta Center
Sun 03:31:17 PM 33.6833 -84.5333 308° West 253 291 4,500 2,561 Climbing Atlanta TRACON
Sun 03:32:00 PM 33.8636 -84.1969 320° Northwest  Level FlightAware Approximate
Sun 03:33:00 PM 33.9771 -84.2667 North  Level FlightAware Approximate
Sun 03:33:11 PM 33.8000 -84.5833 340° North 277 319 9,700  Level Atlanta TRACON
Sun 03:34:00 PM 34.1116 -84.2667 North  Level FlightAware Approximate
Sun 03:34:34 PM 33.8894 -84.4692 47° Northeast 335 386 11,500  Level Atlanta Center
Sun 03:35:00 PM 34.2460 -84.2667 North  Level FlightAware Approximate
Sun 03:35:34 PM 33.9794 -84.3894 36° Northeast 379 436 13,300  Level Atlanta Center
Sun 03:36:34 PM 34.0819 -84.3547 16° North 383 441 15,600 2,000 Climbing Atlanta Center
Sun 03:37:34 PM 34.1906 -84.3175 16° North 408 470 17,300 1,700 Climbing Atlanta Center
Sun 03:38:34 PM 34.3075 -84.2803 15° North 429 494 19,000 1,650 Climbing Atlanta Center
Sun 03:39:34 PM 34.4286 -84.2503 12° North 434 499 20,600 1,000 Climbing Atlanta Center
Sun 03:40:34 PM 34.5558 -84.2203 11° North 444 511 21,000 200 Climbing Atlanta Center
Sun 03:41:34 PM 34.6792 -84.1928 10° North 456 525 21,000 750 Level Atlanta Center
Sun 03:42:34 PM 34.8044 -84.1628 11° North 450 518 22,500 1,250 Climbing Atlanta Center
Sun 03:43:34 PM 34.9317 -84.1325 11° North 450 518 23,500 1,100 Climbing Atlanta Center
Sun 03:44:34 PM 35.0631 -84.0997 12° North 461 531 24,700 1,250 Climbing Atlanta Center
Sun 03:45:34 PM 35.1925 -84.0692 11° North 466 536 26,000 1,400 Climbing Atlanta Center
Sun 03:46:34 PM 35.3239 -84.0361 12° North 471 542 27,500 1,000 Climbing Atlanta Center
Sun 03:47:34 PM 35.4511 -84.0081 10° North 471 542 28,000 750 Climbing Atlanta Center
Sun 03:48:34 PM 35.5847 -83.9750 11° North 471 542 29,000 1,450 Climbing Atlanta Center
Sun 03:49:34 PM 35.7100 -83.9442 11° North 466 536 30,900 1,250 Climbing Atlanta Center
Sun 03:50:34 PM 35.8372 -83.9106 12° North 460 529 31,500 545 Climbing Atlanta Center
Sun 03:51:35 PM 35.9581 -83.8617 18° North 460 529 32,000 600 Climbing Atlanta Center
Sun 03:52:34 PM 36.0808 -83.7844 27° Northeast 471 542 32,700 395 Climbing Atlanta Center
Sun 03:54:07 PM 36.2697 -83.6606 28° Northeast 484 557 33,000 116 Climbing Indianapolis Center
Sun 03:55:09 PM 36.3908 -83.5847 27° Northeast 486 559 33,000  Level Indianapolis Center
Sun 03:56:11 PM 36.5192 -83.5025 27° Northeast 482 555 33,000  Level Indianapolis Center
Sun 03:57:13 PM 36.6383 -83.4244 28° Northeast 481 554 33,000  Level Indianapolis Center
Sun 03:58:15 PM 36.7486 -83.3206 37° Northeast 492 566 33,000  Level Indianapolis Center
Sun 03:59:16 PM 36.8603 -83.2150 37° Northeast 499 574 33,000  Level Indianapolis Center
Sun 04:00:18 PM 36.9764 -83.1231 32° Northeast 489 563 33,000  Level Indianapolis Center
Sun 04:01:20 PM 37.1000 -83.0558 23° Northeast 478 550 33,000  Level Indianapolis Center
Sun 04:02:22 PM 37.2431 -82.9775 24° Northeast 476 548 33,000  Level Indianapolis Center
Sun 04:03:24 PM 37.3636 -82.9072 25° Northeast 479 551 33,000  Level Indianapolis Center
Sun 04:04:26 PM 37.4703 -82.7914 41° Northeast 511 588 33,000  Level Indianapolis Center
Sun 04:05:27 PM 37.5725 -82.6636 45° Northeast 517 595 33,000  Level Indianapolis Center
Sun 04:06:29 PM 37.6750 -82.5389 44° Northeast 513 590 33,000  Level Indianapolis Center
Sun 04:07:31 PM 37.7758 -82.4094 45° Northeast 516 594 33,000  Level Indianapolis Center
Sun 04:08:33 PM 37.8775 -82.2839 44° Northeast 510 587 33,000  Level Indianapolis Center
Sun 04:09:35 PM 37.9950 -82.1364 45° Northeast 515 593 33,000  Level Indianapolis Center
Sun 04:10:37 PM 38.0950 -82.0081 45° Northeast 513 590 33,000  Level Indianapolis Center
Sun 04:11:38 PM 38.1961 -81.8781 45° Northeast 516 594 33,000  Level Indianapolis Center
Sun 04:12:40 PM 38.2969 -81.7478 45° Northeast 517 595 33,000  Level Indianapolis Center
Sun 04:13:42 PM 38.3981 -81.6150 46° Northeast 523 602 33,000  Level Indianapolis Center
Sun 04:14:44 PM 38.4992 -81.4850 45° Northeast 521 600 33,000  Level Indianapolis Center
Sun 04:15:46 PM 38.6200 -81.3294 45° Northeast 526 605 33,000  Level Indianapolis Center
Sun 04:16:48 PM 38.7203 -81.1997 45° Northeast 521 600 33,000  Level Indianapolis Center
Sun 04:17:49 PM 38.8214 -81.0667 46° Northeast 523 602 33,000  Level Indianapolis Center
Sun 04:18:51 PM 38.9244 -80.9319 45° Northeast 528 608 33,000  Level Indianapolis Center
Sun 04:19:53 PM 39.0258 -80.7978 46° Northeast 526 605 33,000  Level Indianapolis Center
Sun 04:20:55 PM 39.1453 -80.6300 47° Northeast 527 606 33,000  Level Indianapolis Center
Sun 04:21:57 PM 39.2444 -80.4892 48° Northeast 531 611 33,000  Level Indianapolis Center
Sun 04:22:59 PM 39.3442 -80.3506 47° Northeast 527 606 33,000  Level Indianapolis Center
Sun 04:23:58 PM 39.4517 -80.2067 46° Northeast 525 604 33,000  Level Cleveland Center
Sun 04:24:58 PM 39.5511 -80.0636 48° Northeast 525 604 33,000  Level Cleveland Center
Sun 04:25:58 PM 39.6503 -79.9144 49° Northeast 530 610 33,000  Level Cleveland Center
Sun 04:26:58 PM 39.7475 -79.7731 48° Northeast 530 610 33,000  Level Cleveland Center
Sun 04:27:58 PM 39.8444 -79.6314 48° Northeast 524 603 33,000  Level Cleveland Center
Sun 04:28:58 PM 39.9411 -79.4892 48° Northeast 519 597 33,000  Level Cleveland Center
Sun 04:29:58 PM 40.0356 -79.3439 50° Northeast 519 597 33,000  Level Cleveland Center
Sun 04:30:58 PM 40.1297 -79.2008 49° Northeast 514 592 33,000  Level Cleveland Center
Sun 04:31:58 PM 40.2236 -79.0575 49° Northeast 514 592 33,000  Level Cleveland Center
Sun 04:32:58 PM 40.3178 -78.9167 49° Northeast 514 592 33,000  Level Cleveland Center
Sun 04:33:58 PM 40.4133 -78.7697 49° Northeast 520 598 33,000  Level Cleveland Center
Sun 04:34:58 PM 40.5069 -78.6253 50° Northeast 520 598 33,000  Level Cleveland Center
Sun 04:37:18 PM 40.7244 -78.2911 49° Northeast 525 604 33,000  Level New York Center
Sun 04:38:18 PM 40.8078 -78.1631 49° Northeast 525 604 33,000  Level New York Center
Sun 04:39:20 PM 40.8725 -78.0575 51° Northeast 525 604 33,000  Level New York Center
Sun 04:40:17 PM 41.0075 -77.8603 48° Northeast 464 534 33,000  Level New York Center
Sun 04:41:18 PM 41.1056 -77.7189 47° Northeast 495 570 33,000  Level New York Center
Sun 04:42:18 PM 41.2036 -77.5744 48° Northeast 516 594 33,000 -650 Level New York Center
Sun 04:43:18 PM 41.2992 -77.4322 48° Northeast 516 594 31,700 -1,091 Descending New York Center
Sun 04:44:19 PM 41.3967 -77.2897 48° Northeast 516 594 30,800 -843 Descending New York Center
Sun 04:45:19 PM 41.4869 -77.1600 47° Northeast 516 594 30,000 -915 Descending New York Center
Sun 04:46:17 PM 41.5822 -77.0164 48° Northeast 522 601 29,000 -508 Descending New York Center
Sun 04:47:17 PM 41.6839 -76.8619 49° Northeast 527 606 29,000  Level New York Center
Sun 04:48:17 PM 41.7853 -76.7100 48° Northeast 541 623 29,000  Level New York Center
Sun 04:49:17 PM 41.8864 -76.5572 48° Northeast 546 628 29,000 -1,079 Level New York Center
Sun 04:51:26 PM 42.1036 -76.2267 48° Northeast 553 636 25,600 -1,587 Descending Boston Center
Sun 04:52:26 PM 42.1861 -76.0661 55° Northeast 539 620 24,000 -800 Descending Boston Center
Sun 04:53:26 PM 42.2456 -75.8956 65° Northeast 507 583 24,000  Level Boston Center
Sun 04:54:26 PM 42.3047 -75.7306 64° Northeast 492 566 24,000 -50 Level Boston Center
Sun 04:55:26 PM 42.3597 -75.5564 67° East 492 566 23,900 -50 Descending Boston Center
Sun 04:56:26 PM 42.3833 -75.3747 80° East 477 549 23,900 50 Level Boston Center
Sun 04:57:26 PM 42.4044 -75.1986 81° East 477 549 24,000 50 Climbing Boston Center
Sun 04:58:26 PM 42.4233 -75.0192 82° East 482 555 24,000 -706 Level Boston Center
Sun 04:58:51 PM 42.4378 -74.9214 79° East 491 565 23,000 -2,100 Descending Boston Center
Sun 04:59:26 PM 42.4458 -74.8403 82° East 487 560 21,900 -2,618 Descending Boston Center
Sun 04:59:46 PM 42.4558 -74.7617 80° East 480 552 20,600 -2,500 Descending Boston Center
Sun 05:00:26 PM 42.4661 -74.6664 82° East 477 549 19,400 -2,852 Descending Boston Center
Sun 05:00:47 PM 42.4758 -74.5881 80° East 468 539 17,700 -3,900 Descending Boston Center
Sun 05:01:26 PM 42.4864 -74.4700 83° East 477 549 15,500 -3,273 Descending Boston Center
Sun 05:01:42 PM 42.4914 -74.4250 81° East 459 528 14,700 -3,500 Descending Boston Center
Sun 05:02:26 PM 42.5017 -74.3072 83° East 457 526 12,000 -2,481 Descending Boston Center
Sun 05:03:26 PM 42.5022 -74.1494 90° East 419 482 10,400 -1,100 Descending Boston Center
Sun 05:04:26 PM 42.4958 -74.0169 94° East 377 434 9,800 -1,600 Descending Boston Center
Sun 05:05:26 PM 42.4847 -73.9042 98° East 314 361 7,200 -2,500 Descending Boston Center
Sun 05:06:26 PM 42.4736 -73.7911 98° East 293 337 4,800 -2,016 Descending Boston Center
Sun 05:07:34 PM 42.5244 -73.7303 41° Northeast 252 290 2,900 -1,100 Descending Boston Center
Sun 05:08:26 PM 42.5739 -73.7653 332° Northwest 184 212 2,600 -198 Descending Boston Center
Sun 05:09:35 PM 42.6256 -73.8031 332° Northwest 193 222 2,500 -50 Descending Boston Center
Sun 05:10:26 PM 42.6669 -73.8264 337° Northwest 184 212 2,500 -891 Level Boston Center
Sun 05:11:43 PM 42.7236 -73.8081 13° North 138 159 600 -1,481 Descending Boston Center

Login

Don't have an account? Register now (free) for customized features, flight alerts, and more!